Etusivu
METAR-TAF:

METAR-TAF

Lentoasemat :

Karachi, Pakistan

Leveyspiiri: 24-54N, Pituuspiiri: 067-08E, korkeus merenpinnasta: 21 m

Tämänhetkinen sää

Tämä raportti tehtiin 41 minuuttia sitten, kello 21.55 UTC
Tuuli 5 kn etelästä/lounaasta
Lämpötila 27°C
Kosteus 89%
Ilmanpaine 1003 hPa
Näkyvyys: 6000 m

METAR: OPKC 192155Z 21005KT 6000 NSC 27/25 Q1003 NOSIG

Aika: 03:36 (22:36 UTC)

Sääennuste

Tämä raportti tehtiin 6 tuntia ja 36 minuuttia sitten, kello 16.00 UTC
Ennuste voimassa 19. päivästä klo 18 UTC - 20. päivään klo 24 UTC
Tuuli 3 kn eri suunnista
Näkyvyys: 5000 m
usvaa
From UTC
Näkyvyys: 7000 m
From UTC
Tuuli 5 kn lännestä/lounaasta
Näkyvyys: 6000 m
Hajanaisia pilviä 2000 ft:n korkeudessa

TAF: OPKC 191600Z 1918/2024 VRB03KT 5000 HZ NSC FM 2000/2006KT 7000 NSC FM 201600 24005KT 6000 SCT020

Säähavainnot ja -ennusteet yli 4000 lentoasemalta (METAR- ja TAF-raportit).

Käytössä olevat sääasemat on merkitty karttaan keltaisilla ja punaisilla pisteillä.

Aseta hiiri pisteen päälle nähdäksesi sääaseman nimen.

Klikkaa sitten nähdäksesi säähavainnot ja -ennusteet.

Kartan vaihtaminen: klikkaa mustalla rastilla varustettuja vihreitä pisteitä, niin voit zoomata sisään; viivalla varustettua vihreää pistettä, niin voit zoomata ulos tai vihreitä nuolia, niin pääset viereisille kartoille.


METAR-TAF: